sensor_id;sensor_type;location;lat;lon;timestamp;temperature;humidity
25046;DHT22;13044;49.304;12.840;2022-08-21T00:00:48;18.10;99.90
25046;DHT22;13044;49.304;12.840;2022-08-21T00:03:15;18.10;99.90
25046;DHT22;13044;49.304;12.840;2022-08-21T00:05:47;18.10;99.90
25046;DHT22;13044;49.304;12.840;2022-08-21T00:08:20;18.20;99.90
25046;DHT22;13044;49.304;12.840;2022-08-21T00:10:48;18.20;99.90
25046;DHT22;13044;49.304;12.840;2022-08-21T00:13:17;18.20;99.90
25046;DHT22;13044;49.304;12.840;2022-08-21T00:15:44;18.20;99.90
25046;DHT22;13044;49.304;12.840;2022-08-21T00:18:12;18.20;99.90
25046;DHT22;13044;49.304;12.840;2022-08-21T00:20:43;18.20;99.90
25046;DHT22;13044;49.304;12.840;2022-08-21T00:23:11;18.20;99.90
25046;DHT22;13044;49.304;12.840;2022-08-21T00:25:40;18.20;99.90
25046;DHT22;13044;49.304;12.840;2022-08-21T00:28:08;18.20;99.90
25046;DHT22;13044;49.304;12.840;2022-08-21T00:30:36;18.20;99.90
25046;DHT22;13044;49.304;12.840;2022-08-21T00:33:03;18.20;99.90
25046;DHT22;13044;49.304;12.840;2022-08-21T00:35:34;18.20;99.90
25046;DHT22;13044;49.304;12.840;2022-08-21T00:38:05;18.20;99.90
25046;DHT22;13044;49.304;12.840;2022-08-21T00:40:58;18.20;99.90
25046;DHT22;13044;49.304;12.840;2022-08-21T00:43:47;18.20;99.90
25046;DHT22;13044;49.304;12.840;2022-08-21T00:46:14;18.20;99.90
25046;DHT22;13044;49.304;12.840;2022-08-21T00:48:41;18.20;99.90
25046;DHT22;13044;49.304;12.840;2022-08-21T00:51:15;18.20;99.90
25046;DHT22;13044;49.304;12.840;2022-08-21T00:53:53;18.10;99.90
25046;DHT22;13044;49.304;12.840;2022-08-21T00:56:23;18.10;99.90
25046;DHT22;13044;49.304;12.840;2022-08-21T00:58:52;18.00;99.90
25046;DHT22;13044;49.304;12.840;2022-08-21T01:01:20;18.00;99.90
25046;DHT22;13044;49.304;12.840;2022-08-21T01:03:48;18.00;99.90
25046;DHT22;13044;49.304;12.840;2022-08-21T01:06:16;17.90;99.90
25046;DHT22;13044;49.304;12.840;2022-08-21T01:08:43;17.90;99.90
25046;DHT22;13044;49.304;12.840;2022-08-21T01:11:14;17.90;99.90
25046;DHT22;13044;49.304;12.840;2022-08-21T01:13:42;17.90;99.90
25046;DHT22;13044;49.304;12.840;2022-08-21T01:16:15;17.90;99.90
25046;DHT22;13044;49.304;12.840;2022-08-21T01:18:45;18.00;99.90
25046;DHT22;13044;49.304;12.840;2022-08-21T01:21:22;17.90;99.90
25046;DHT22;13044;49.304;12.840;2022-08-21T01:23:56;18.00;99.90
25046;DHT22;13044;49.304;12.840;2022-08-21T01:26:29;18.00;99.90
25046;DHT22;13044;49.304;12.840;2022-08-21T01:29:12;18.00;99.90
25046;DHT22;13044;49.304;12.840;2022-08-21T01:31:41;18.00;99.90
25046;DHT22;13044;49.304;12.840;2022-08-21T01:34:09;18.00;99.90
25046;DHT22;13044;49.304;12.840;2022-08-21T01:36:36;18.00;99.90
25046;DHT22;13044;49.304;12.840;2022-08-21T01:39:04;18.00;99.90
25046;DHT22;13044;49.304;12.840;2022-08-21T01:41:32;17.90;99.90
25046;DHT22;13044;49.304;12.840;2022-08-21T01:43:59;17.90;99.90
25046;DHT22;13044;49.304;12.840;2022-08-21T01:46:26;17.90;99.90
25046;DHT22;13044;49.304;12.840;2022-08-21T01:48:53;17.90;99.90
25046;DHT22;13044;49.304;12.840;2022-08-21T01:51:19;17.90;99.90
25046;DHT22;13044;49.304;12.840;2022-08-21T01:53:47;17.90;99.90
25046;DHT22;13044;49.304;12.840;2022-08-21T01:56:16;17.90;99.90
25046;DHT22;13044;49.304;12.840;2022-08-21T01:58:45;17.90;99.90
25046;DHT22;13044;49.304;12.840;2022-08-21T02:01:13;17.90;99.90
25046;DHT22;13044;49.304;12.840;2022-08-21T02:03:40;17.90;99.90
25046;DHT22;13044;49.304;12.840;2022-08-21T02:06:12;17.90;99.90
25046;DHT22;13044;49.304;12.840;2022-08-21T02:08:44;17.90;99.90
25046;DHT22;13044;49.304;12.840;2022-08-21T02:11:11;17.90;99.90
25046;DHT22;13044;49.304;12.840;2022-08-21T02:13:39;17.90;99.90
25046;DHT22;13044;49.304;12.840;2022-08-21T02:16:06;17.90;99.90
25046;DHT22;13044;49.304;12.840;2022-08-21T02:18:34;17.80;99.90
25046;DHT22;13044;49.304;12.840;2022-08-21T02:21:02;17.80;99.90
25046;DHT22;13044;49.304;12.840;2022-08-21T02:23:29;17.90;99.90
25046;DHT22;13044;49.304;12.840;2022-08-21T02:25:58;17.90;99.90
25046;DHT22;13044;49.304;12.840;2022-08-21T02:28:26;17.90;99.90
25046;DHT22;13044;49.304;12.840;2022-08-21T02:30:55;17.90;99.90
25046;DHT22;13044;49.304;12.840;2022-08-21T02:33:23;17.90;99.90
25046;DHT22;13044;49.304;12.840;2022-08-21T02:35:50;17.90;99.90
25046;DHT22;13044;49.304;12.840;2022-08-21T02:38:21;17.90;99.90
25046;DHT22;13044;49.304;12.840;2022-08-21T02:40:51;17.90;99.90
25046;DHT22;13044;49.304;12.840;2022-08-21T02:43:21;17.90;99.90
25046;DHT22;13044;49.304;12.840;2022-08-21T02:45:50;17.90;99.90
25046;DHT22;13044;49.304;12.840;2022-08-21T02:48:20;18.00;99.90
25046;DHT22;13044;49.304;12.840;2022-08-21T02:51:14;18.00;99.90
25046;DHT22;13044;49.304;12.840;2022-08-21T02:53:41;18.00;99.90
25046;DHT22;13044;49.304;12.840;2022-08-21T02:56:10;18.00;99.90
25046;DHT22;13044;49.304;12.840;2022-08-21T02:58:43;17.90;99.90
25046;DHT22;13044;49.304;12.840;2022-08-21T03:01:12;18.00;99.90
25046;DHT22;13044;49.304;12.840;2022-08-21T03:03:41;18.00;99.90
25046;DHT22;13044;49.304;12.840;2022-08-21T03:06:12;18.00;99.90
25046;DHT22;13044;49.304;12.840;2022-08-21T03:08:40;17.90;99.90
25046;DHT22;13044;49.304;12.840;2022-08-21T03:11:07;17.90;99.90
25046;DHT22;13044;49.304;12.840;2022-08-21T03:13:36;17.90;99.90
25046;DHT22;13044;49.304;12.840;2022-08-21T03:16:03;17.80;99.90
25046;DHT22;13044;49.304;12.840;2022-08-21T03:18:30;17.80;99.90
25046;DHT22;13044;49.304;12.840;2022-08-21T03:20:57;17.80;99.90
25046;DHT22;13044;49.304;12.840;2022-08-21T03:23:24;17.70;99.90
25046;DHT22;13044;49.304;12.840;2022-08-21T03:25:58;17.80;99.90
25046;DHT22;13044;49.304;12.840;2022-08-21T03:28:25;17.80;99.90
25046;DHT22;13044;49.304;12.840;2022-08-21T03:30:53;17.70;99.90
25046;DHT22;13044;49.304;12.840;2022-08-21T03:33:21;17.70;99.90
25046;DHT22;13044;49.304;12.840;2022-08-21T03:35:58;17.80;99.90
25046;DHT22;13044;49.304;12.840;2022-08-21T03:38:35;17.80;99.90
25046;DHT22;13044;49.304;12.840;2022-08-21T03:41:04;17.80;99.90
25046;DHT22;13044;49.304;12.840;2022-08-21T03:43:32;17.90;99.90
25046;DHT22;13044;49.304;12.840;2022-08-21T03:46:01;17.90;99.90
25046;DHT22;13044;49.304;12.840;2022-08-21T03:48:30;18.00;99.90
25046;DHT22;13044;49.304;12.840;2022-08-21T03:50:57;18.00;99.90
25046;DHT22;13044;49.304;12.840;2022-08-21T03:53:24;18.00;99.90
25046;DHT22;13044;49.304;12.840;2022-08-21T03:55:52;18.10;99.90
25046;DHT22;13044;49.304;12.840;2022-08-21T03:58:22;18.10;99.90
25046;DHT22;13044;49.304;12.840;2022-08-21T04:00:52;18.20;99.90
25046;DHT22;13044;49.304;12.840;2022-08-21T04:03:22;18.00;99.90
25046;DHT22;13044;49.304;12.840;2022-08-21T04:05:49;18.00;99.90
25046;DHT22;13044;49.304;12.840;2022-08-21T04:08:17;18.00;99.90
25046;DHT22;13044;49.304;12.840;2022-08-21T04:10:47;18.00;99.90
25046;DHT22;13044;49.304;12.840;2022-08-21T04:13:17;18.10;99.90
25046;DHT22;13044;49.304;12.840;2022-08-21T04:15:44;18.00;99.90
25046;DHT22;13044;49.304;12.840;2022-08-21T04:18:11;18.00;99.90
25046;DHT22;13044;49.304;12.840;2022-08-21T04:27:19;17.90;99.90
25046;DHT22;13044;49.304;12.840;2022-08-21T04:29:51;17.90;99.90
25046;DHT22;13044;49.304;12.840;2022-08-21T04:32:25;17.90;99.90
25046;DHT22;13044;49.304;12.840;2022-08-21T04:35:00;17.90;99.90
25046;DHT22;13044;49.304;12.840;2022-08-21T04:37:29;17.90;99.90
25046;DHT22;13044;49.304;12.840;2022-08-21T04:39:56;17.80;99.90
25046;DHT22;13044;49.304;12.840;2022-08-21T04:42:25;17.80;99.90
25046;DHT22;13044;49.304;12.840;2022-08-21T04:44:53;17.80;99.90
25046;DHT22;13044;49.304;12.840;2022-08-21T04:47:23;17.70;99.90
25046;DHT22;13044;49.304;12.840;2022-08-21T04:50:10;17.80;99.90
25046;DHT22;13044;49.304;12.840;2022-08-21T04:52:37;17.80;99.90
25046;DHT22;13044;49.304;12.840;2022-08-21T04:55:05;17.80;99.90
25046;DHT22;13044;49.304;12.840;2022-08-21T04:57:32;17.80;99.90
25046;DHT22;13044;49.304;12.840;2022-08-21T05:00:15;17.90;99.90
25046;DHT22;13044;49.304;12.840;2022-08-21T05:02:45;17.80;99.90
25046;DHT22;13044;49.304;12.840;2022-08-21T05:05:15;17.80;99.90
25046;DHT22;13044;49.304;12.840;2022-08-21T05:07:42;17.80;99.90
25046;DHT22;13044;49.304;12.840;2022-08-21T05:10:10;17.80;99.90
25046;DHT22;13044;49.304;12.840;2022-08-21T05:12:40;17.80;99.90
25046;DHT22;13044;49.304;12.840;2022-08-21T05:15:10;17.90;99.90
25046;DHT22;13044;49.304;12.840;2022-08-21T05:17:40;17.90;99.90
25046;DHT22;13044;49.304;12.840;2022-08-21T05:20:09;18.00;99.90
25046;DHT22;13044;49.304;12.840;2022-08-21T05:22:36;18.00;99.90
25046;DHT22;13044;49.304;12.840;2022-08-21T05:25:05;18.00;99.90
25046;DHT22;13044;49.304;12.840;2022-08-21T05:27:36;18.00;99.90
25046;DHT22;13044;49.304;12.840;2022-08-21T05:30:06;18.00;99.90
25046;DHT22;13044;49.304;12.840;2022-08-21T05:32:35;18.10;99.90
25046;DHT22;13044;49.304;12.840;2022-08-21T05:35:04;18.10;99.90
25046;DHT22;13044;49.304;12.840;2022-08-21T05:37:32;18.10;99.90
25046;DHT22;13044;49.304;12.840;2022-08-21T05:40:00;18.20;99.90
25046;DHT22;13044;49.304;12.840;2022-08-21T05:42:47;18.20;99.90
25046;DHT22;13044;49.304;12.840;2022-08-21T05:45:28;18.30;99.90
25046;DHT22;13044;49.304;12.840;2022-08-21T05:48:19;18.40;99.90
25046;DHT22;13044;49.304;12.840;2022-08-21T05:50:50;18.40;99.90
25046;DHT22;13044;49.304;12.840;2022-08-21T05:53:19;18.40;99.90
25046;DHT22;13044;49.304;12.840;2022-08-21T05:55:48;18.40;99.90
25046;DHT22;13044;49.304;12.840;2022-08-21T05:58:19;18.40;99.90
25046;DHT22;13044;49.304;12.840;2022-08-21T06:00:48;18.40;99.90
25046;DHT22;13044;49.304;12.840;2022-08-21T06:03:22;18.40;99.90
25046;DHT22;13044;49.304;12.840;2022-08-21T06:05:54;18.50;99.90
25046;DHT22;13044;49.304;12.840;2022-08-21T06:08:22;18.50;99.90
25046;DHT22;13044;49.304;12.840;2022-08-21T06:10:51;18.50;99.90
25046;DHT22;13044;49.304;12.840;2022-08-21T06:13:19;18.50;99.90
25046;DHT22;13044;49.304;12.840;2022-08-21T06:15:47;18.50;99.90
25046;DHT22;13044;49.304;12.840;2022-08-21T06:18:15;18.60;99.90
25046;DHT22;13044;49.304;12.840;2022-08-21T06:20:42;18.60;99.90
25046;DHT22;13044;49.304;12.840;2022-08-21T06:23:09;18.60;99.90
25046;DHT22;13044;49.304;12.840;2022-08-21T06:25:36;18.70;99.90
25046;DHT22;13044;49.304;12.840;2022-08-21T06:28:05;18.70;99.90
25046;DHT22;13044;49.304;12.840;2022-08-21T06:30:33;18.70;99.90
25046;DHT22;13044;49.304;12.840;2022-08-21T06:33:02;18.70;99.90
25046;DHT22;13044;49.304;12.840;2022-08-21T06:35:30;18.70;99.90
25046;DHT22;13044;49.304;12.840;2022-08-21T06:37:57;18.70;99.90
25046;DHT22;13044;49.304;12.840;2022-08-21T06:40:26;18.80;99.90
25046;DHT22;13044;49.304;12.840;2022-08-21T06:42:56;18.80;99.90
25046;DHT22;13044;49.304;12.840;2022-08-21T06:45:26;18.90;99.90
25046;DHT22;13044;49.304;12.840;2022-08-21T06:47:57;19.00;99.90
25046;DHT22;13044;49.304;12.840;2022-08-21T06:50:24;19.10;99.90
25046;DHT22;13044;49.304;12.840;2022-08-21T06:52:59;19.10;99.90
25046;DHT22;13044;49.304;12.840;2022-08-21T06:55:27;19.10;99.90
25046;DHT22;13044;49.304;12.840;2022-08-21T06:57:54;19.20;99.90
25046;DHT22;13044;49.304;12.840;2022-08-21T07:00:21;19.20;99.90
25046;DHT22;13044;49.304;12.840;2022-08-21T07:02:48;19.20;99.90
25046;DHT22;13044;49.304;12.840;2022-08-21T07:05:15;19.30;99.90
25046;DHT22;13044;49.304;12.840;2022-08-21T07:07:44;19.40;99.90
25046;DHT22;13044;49.304;12.840;2022-08-21T07:10:13;19.40;99.90
25046;DHT22;13044;49.304;12.840;2022-08-21T07:12:50;19.50;99.90
25046;DHT22;13044;49.304;12.840;2022-08-21T07:15:28;19.60;99.90
25046;DHT22;13044;49.304;12.840;2022-08-21T07:17:57;19.70;99.90
25046;DHT22;13044;49.304;12.840;2022-08-21T07:20:26;19.80;99.90
25046;DHT22;13044;49.304;12.840;2022-08-21T07:22:56;19.70;99.90
25046;DHT22;13044;49.304;12.840;2022-08-21T07:25:25;19.80;99.90
25046;DHT22;13044;49.304;12.840;2022-08-21T07:27:52;19.80;99.90
25046;DHT22;13044;49.304;12.840;2022-08-21T07:30:19;19.80;99.90
25046;DHT22;13044;49.304;12.840;2022-08-21T07:32:46;19.80;99.90
25046;DHT22;13044;49.304;12.840;2022-08-21T07:35:17;19.90;99.90
25046;DHT22;13044;49.304;12.840;2022-08-21T07:37:45;19.90;99.90
25046;DHT22;13044;49.304;12.840;2022-08-21T07:40:13;19.90;99.90
25046;DHT22;13044;49.304;12.840;2022-08-21T07:42:45;19.90;99.90
25046;DHT22;13044;49.304;12.840;2022-08-21T07:45:14;19.90;99.90
25046;DHT22;13044;49.304;12.840;2022-08-21T07:47:41;20.00;99.90
25046;DHT22;13044;49.304;12.840;2022-08-21T07:50:10;20.10;99.90
25046;DHT22;13044;49.304;12.840;2022-08-21T07:52:39;20.10;99.90
25046;DHT22;13044;49.304;12.840;2022-08-21T07:55:10;20.10;99.90
25046;DHT22;13044;49.304;12.840;2022-08-21T07:57:38;20.20;99.90
25046;DHT22;13044;49.304;12.840;2022-08-21T08:00:09;20.20;99.90
25046;DHT22;13044;49.304;12.840;2022-08-21T08:02:40;20.10;99.90
25046;DHT22;13044;49.304;12.840;2022-08-21T08:05:10;20.20;99.90
25046;DHT22;13044;49.304;12.840;2022-08-21T08:07:38;20.30;99.90
25046;DHT22;13044;49.304;12.840;2022-08-21T08:10:06;20.50;99.90
25046;DHT22;13044;49.304;12.840;2022-08-21T08:12:39;20.70;99.90
25046;DHT22;13044;49.304;12.840;2022-08-21T08:15:10;20.80;99.90
25046;DHT22;13044;49.304;12.840;2022-08-21T08:17:45;21.00;99.90
25046;DHT22;13044;49.304;12.840;2022-08-21T08:20:14;21.10;99.90
25046;DHT22;13044;49.304;12.840;2022-08-21T08:22:42;21.20;99.90
25046;DHT22;13044;49.304;12.840;2022-08-21T08:25:17;21.30;99.90
25046;DHT22;13044;49.304;12.840;2022-08-21T08:27:45;21.30;99.90
25046;DHT22;13044;49.304;12.840;2022-08-21T08:30:14;21.40;99.90
25046;DHT22;13044;49.304;12.840;2022-08-21T08:32:42;21.50;99.90
25046;DHT22;13044;49.304;12.840;2022-08-21T08:35:09;21.60;99.90
25046;DHT22;13044;49.304;12.840;2022-08-21T08:37:38;21.60;99.90
25046;DHT22;13044;49.304;12.840;2022-08-21T08:43:12;21.70;99.90
25046;DHT22;13044;49.304;12.840;2022-08-21T08:45:43;21.70;99.90
25046;DHT22;13044;49.304;12.840;2022-08-21T08:48:36;21.60;99.90
25046;DHT22;13044;49.304;12.840;2022-08-21T08:51:29;21.40;99.90
25046;DHT22;13044;49.304;12.840;2022-08-21T08:54:29;21.30;99.90
25046;DHT22;13044;49.304;12.840;2022-08-21T08:57:02;21.30;99.90
25046;DHT22;13044;49.304;12.840;2022-08-21T08:59:39;21.30;99.90
25046;DHT22;13044;49.304;12.840;2022-08-21T09:02:11;21.30;99.90
25046;DHT22;13044;49.304;12.840;2022-08-21T09:04:39;21.50;99.90
25046;DHT22;13044;49.304;12.840;2022-08-21T09:07:19;21.60;99.90
25046;DHT22;13044;49.304;12.840;2022-08-21T09:10:13;21.80;99.90
25046;DHT22;13044;49.304;12.840;2022-08-21T09:18:38;21.60;99.90
25046;DHT22;13044;49.304;12.840;2022-08-21T09:24:26;21.40;99.90
25046;DHT22;13044;49.304;12.840;2022-08-21T09:27:07;21.50;99.90
25046;DHT22;13044;49.304;12.840;2022-08-21T09:29:40;21.40;99.90
25046;DHT22;13044;49.304;12.840;2022-08-21T09:35:13;21.50;99.90
25046;DHT22;13044;49.304;12.840;2022-08-21T09:37:59;21.70;99.90
25046;DHT22;13044;49.304;12.840;2022-08-21T09:43:19;22.00;99.90
25046;DHT22;13044;49.304;12.840;2022-08-21T09:45:49;22.00;99.90
25046;DHT22;13044;49.304;12.840;2022-08-21T09:48:29;22.10;99.90
25046;DHT22;13044;49.304;12.840;2022-08-21T09:51:10;22.30;99.90
25046;DHT22;13044;49.304;12.840;2022-08-21T09:53:44;22.30;99.90
25046;DHT22;13044;49.304;12.840;2022-08-21T09:56:34;22.40;99.90
25046;DHT22;13044;49.304;12.840;2022-08-21T09:59:41;22.30;99.90
25046;DHT22;13044;49.304;12.840;2022-08-21T10:02:28;22.40;99.90
25046;DHT22;13044;49.304;12.840;2022-08-21T10:07:37;22.40;99.90
25046;DHT22;13044;49.304;12.840;2022-08-21T10:13:09;22.50;99.90
25046;DHT22;13044;49.304;12.840;2022-08-21T10:16:09;22.70;99.90
25046;DHT22;13044;49.304;12.840;2022-08-21T10:28:40;22.90;99.90
25046;DHT22;13044;49.304;12.840;2022-08-21T10:37:33;23.20;99.90
25046;DHT22;13044;49.304;12.840;2022-08-21T10:48:36;22.70;99.90
25046;DHT22;13044;49.304;12.840;2022-08-21T10:51:19;22.60;99.90
25046;DHT22;13044;49.304;12.840;2022-08-21T10:54:38;22.50;99.90
25046;DHT22;13044;49.304;12.840;2022-08-21T10:57:18;22.50;99.90
25046;DHT22;13044;49.304;12.840;2022-08-21T11:00:05;22.40;99.90
25046;DHT22;13044;49.304;12.840;2022-08-21T11:02:58;22.40;99.90
25046;DHT22;13044;49.304;12.840;2022-08-21T11:05:33;22.30;99.90
25046;DHT22;13044;49.304;12.840;2022-08-21T11:08:13;22.30;99.90
25046;DHT22;13044;49.304;12.840;2022-08-21T11:10:54;22.30;99.90
25046;DHT22;13044;49.304;12.840;2022-08-21T11:13:38;22.30;99.90
25046;DHT22;13044;49.304;12.840;2022-08-21T11:16:23;22.40;99.90
25046;DHT22;13044;49.304;12.840;2022-08-21T11:19:10;22.50;99.90
25046;DHT22;13044;49.304;12.840;2022-08-21T11:25:11;22.80;99.90
25046;DHT22;13044;49.304;12.840;2022-08-21T11:27:50;22.80;99.90
25046;DHT22;13044;49.304;12.840;2022-08-21T11:30:19;22.90;99.90
25046;DHT22;13044;49.304;12.840;2022-08-21T11:33:23;23.00;99.90
25046;DHT22;13044;49.304;12.840;2022-08-21T11:36:25;23.10;99.90
25046;DHT22;13044;49.304;12.840;2022-08-21T11:50:28;23.20;99.90
25046;DHT22;13044;49.304;12.840;2022-08-21T11:53:30;23.20;99.90
25046;DHT22;13044;49.304;12.840;2022-08-21T11:56:14;23.10;99.90
25046;DHT22;13044;49.304;12.840;2022-08-21T11:58:49;23.10;99.90
25046;DHT22;13044;49.304;12.840;2022-08-21T12:01:27;23.10;99.90
25046;DHT22;13044;49.304;12.840;2022-08-21T12:04:02;23.20;99.90
25046;DHT22;13044;49.304;12.840;2022-08-21T12:06:44;23.30;99.90
25046;DHT22;13044;49.304;12.840;2022-08-21T12:12:29;23.40;99.90
25046;DHT22;13044;49.304;12.840;2022-08-21T12:20:44;23.90;99.90
25046;DHT22;13044;49.304;12.840;2022-08-21T12:23:30;24.10;99.90
25046;DHT22;13044;49.304;12.840;2022-08-21T12:26:32;24.20;99.90
25046;DHT22;13044;49.304;12.840;2022-08-21T12:29:26;24.30;99.90
25046;DHT22;13044;49.304;12.840;2022-08-21T12:37:39;24.00;99.90
25046;DHT22;13044;49.304;12.840;2022-08-21T12:40:29;23.80;99.90
25046;DHT22;13044;49.304;12.840;2022-08-21T12:43:00;23.80;99.90
25046;DHT22;13044;49.304;12.840;2022-08-21T12:45:55;23.60;99.90
25046;DHT22;13044;49.304;12.840;2022-08-21T12:48:31;23.50;99.90
25046;DHT22;13044;49.304;12.840;2022-08-21T12:51:18;23.40;99.90
25046;DHT22;13044;49.304;12.840;2022-08-21T12:53:57;23.30;99.90
25046;DHT22;13044;49.304;12.840;2022-08-21T12:56:28;23.30;99.90
25046;DHT22;13044;49.304;12.840;2022-08-21T12:59:05;23.40;99.90
25046;DHT22;13044;49.304;12.840;2022-08-21T13:01:47;23.40;99.90
25046;DHT22;13044;49.304;12.840;2022-08-21T13:04:22;23.40;99.90
25046;DHT22;13044;49.304;12.840;2022-08-21T13:07:06;23.50;99.90
25046;DHT22;13044;49.304;12.840;2022-08-21T13:10:04;23.40;99.90
25046;DHT22;13044;49.304;12.840;2022-08-21T13:12:35;23.40;99.90
25046;DHT22;13044;49.304;12.840;2022-08-21T13:15:05;23.40;99.90
25046;DHT22;13044;49.304;12.840;2022-08-21T13:17:36;23.40;99.90
25046;DHT22;13044;49.304;12.840;2022-08-21T13:20:20;23.40;99.90
25046;DHT22;13044;49.304;12.840;2022-08-21T13:22:52;23.20;99.90
25046;DHT22;13044;49.304;12.840;2022-08-21T13:25:21;23.10;99.90
25046;DHT22;13044;49.304;12.840;2022-08-21T13:28:08;23.10;99.90
25046;DHT22;13044;49.304;12.840;2022-08-21T13:33:24;23.10;99.90
25046;DHT22;13044;49.304;12.840;2022-08-21T13:36:14;23.20;99.90
25046;DHT22;13044;49.304;12.840;2022-08-21T13:38:45;23.20;99.90
25046;DHT22;13044;49.304;12.840;2022-08-21T13:43:49;23.10;99.90
25046;DHT22;13044;49.304;12.840;2022-08-21T13:46:26;23.30;99.90
25046;DHT22;13044;49.304;12.840;2022-08-21T13:48:56;23.30;99.90
25046;DHT22;13044;49.304;12.840;2022-08-21T13:51:26;23.40;99.90
25046;DHT22;13044;49.304;12.840;2022-08-21T13:53:54;23.40;99.90
25046;DHT22;13044;49.304;12.840;2022-08-21T13:56:28;23.40;99.90
25046;DHT22;13044;49.304;12.840;2022-08-21T13:58:58;23.40;99.90
25046;DHT22;13044;49.304;12.840;2022-08-21T14:01:33;23.50;99.90
25046;DHT22;13044;49.304;12.840;2022-08-21T14:04:04;23.50;99.90
25046;DHT22;13044;49.304;12.840;2022-08-21T14:06:37;23.60;99.90
25046;DHT22;13044;49.304;12.840;2022-08-21T14:09:13;23.70;99.90
25046;DHT22;13044;49.304;12.840;2022-08-21T14:11:55;23.90;99.90
25046;DHT22;13044;49.304;12.840;2022-08-21T14:16:59;24.50;99.90
25046;DHT22;13044;49.304;12.840;2022-08-21T14:19:43;24.60;99.90
25046;DHT22;13044;49.304;12.840;2022-08-21T14:22:40;24.90;99.90
25046;DHT22;13044;49.304;12.840;2022-08-21T14:25:39;25.20;99.90
25046;DHT22;13044;49.304;12.840;2022-08-21T14:30:54;25.40;99.90
25046;DHT22;13044;49.304;12.840;2022-08-21T14:33:28;25.40;99.90
25046;DHT22;13044;49.304;12.840;2022-08-21T14:35:58;25.50;99.90
25046;DHT22;13044;49.304;12.840;2022-08-21T14:38:28;25.60;99.90
25046;DHT22;13044;49.304;12.840;2022-08-21T14:41:04;25.50;99.90
25046;DHT22;13044;49.304;12.840;2022-08-21T14:43:36;25.40;99.90
25046;DHT22;13044;49.304;12.840;2022-08-21T14:46:03;25.40;99.90
25046;DHT22;13044;49.304;12.840;2022-08-21T14:48:30;25.40;99.90
25046;DHT22;13044;49.304;12.840;2022-08-21T14:50:57;25.40;99.90
25046;DHT22;13044;49.304;12.840;2022-08-21T14:53:26;25.50;99.90
25046;DHT22;13044;49.304;12.840;2022-08-21T14:55:53;25.60;99.90
25046;DHT22;13044;49.304;12.840;2022-08-21T14:58:38;25.70;99.90
25046;DHT22;13044;49.304;12.840;2022-08-21T15:01:09;25.70;99.90
25046;DHT22;13044;49.304;12.840;2022-08-21T15:03:37;25.70;99.90
25046;DHT22;13044;49.304;12.840;2022-08-21T15:06:06;25.80;99.90
25046;DHT22;13044;49.304;12.840;2022-08-21T15:08:33;25.80;99.90
25046;DHT22;13044;49.304;12.840;2022-08-21T15:11:02;25.80;99.90
25046;DHT22;13044;49.304;12.840;2022-08-21T15:13:43;25.70;99.90
25046;DHT22;13044;49.304;12.840;2022-08-21T15:16:11;25.50;99.90
25046;DHT22;13044;49.304;12.840;2022-08-21T15:18:39;25.40;99.90
25046;DHT22;13044;49.304;12.840;2022-08-21T15:21:06;25.20;99.90
25046;DHT22;13044;49.304;12.840;2022-08-21T15:23:33;25.10;99.90
25046;DHT22;13044;49.304;12.840;2022-08-21T15:26:05;25.10;99.90
25046;DHT22;13044;49.304;12.840;2022-08-21T15:28:34;25.10;99.90
25046;DHT22;13044;49.304;12.840;2022-08-21T15:31:01;25.00;99.90
25046;DHT22;13044;49.304;12.840;2022-08-21T15:33:28;24.80;99.90
25046;DHT22;13044;49.304;12.840;2022-08-21T15:35:55;24.80;99.90
25046;DHT22;13044;49.304;12.840;2022-08-21T15:38:23;24.70;99.90
25046;DHT22;13044;49.304;12.840;2022-08-21T15:40:50;24.60;99.90
25046;DHT22;13044;49.304;12.840;2022-08-21T15:45:59;24.40;99.90
25046;DHT22;13044;49.304;12.840;2022-08-21T15:48:26;24.40;99.90
25046;DHT22;13044;49.304;12.840;2022-08-21T15:50:54;24.40;99.90
25046;DHT22;13044;49.304;12.840;2022-08-21T15:53:21;24.40;99.90
25046;DHT22;13044;49.304;12.840;2022-08-21T15:55:48;24.40;99.90
25046;DHT22;13044;49.304;12.840;2022-08-21T15:58:16;24.50;99.90
25046;DHT22;13044;49.304;12.840;2022-08-21T16:00:43;24.60;99.90
25046;DHT22;13044;49.304;12.840;2022-08-21T16:03:14;24.90;99.40
25046;DHT22;13044;49.304;12.840;2022-08-21T16:05:44;24.90;99.80
25046;DHT22;13044;49.304;12.840;2022-08-21T16:08:11;25.00;99.90
25046;DHT22;13044;49.304;12.840;2022-08-21T16:10:39;25.10;99.90
25046;DHT22;13044;49.304;12.840;2022-08-21T16:13:12;25.20;99.10
25046;DHT22;13044;49.304;12.840;2022-08-21T16:15:44;25.30;99.30
25046;DHT22;13044;49.304;12.840;2022-08-21T16:18:11;25.40;98.40
25046;DHT22;13044;49.304;12.840;2022-08-21T16:20:38;25.40;98.10
25046;DHT22;13044;49.304;12.840;2022-08-21T16:23:06;25.40;98.30
25046;DHT22;13044;49.304;12.840;2022-08-21T16:25:36;25.30;98.50
25046;DHT22;13044;49.304;12.840;2022-08-21T16:28:07;25.30;98.20
25046;DHT22;13044;49.304;12.840;2022-08-21T16:30:38;25.30;97.00
25046;DHT22;13044;49.304;12.840;2022-08-21T16:33:05;25.20;96.20
25046;DHT22;13044;49.304;12.840;2022-08-21T16:35:33;25.00;96.30
25046;DHT22;13044;49.304;12.840;2022-08-21T16:38:01;25.00;97.70
25046;DHT22;13044;49.304;12.840;2022-08-21T16:40:27;25.00;98.20
25046;DHT22;13044;49.304;12.840;2022-08-21T16:42:55;25.00;98.90
25046;DHT22;13044;49.304;12.840;2022-08-21T16:45:22;25.00;97.00
25046;DHT22;13044;49.304;12.840;2022-08-21T16:47:49;25.00;96.30
25046;DHT22;13044;49.304;12.840;2022-08-21T16:50:20;25.00;96.30
25046;DHT22;13044;49.304;12.840;2022-08-21T16:52:49;24.90;96.60
25046;DHT22;13044;49.304;12.840;2022-08-21T16:55:16;24.80;96.60
25046;DHT22;13044;49.304;12.840;2022-08-21T16:57:43;24.80;96.70
25046;DHT22;13044;49.304;12.840;2022-08-21T17:00:10;24.70;96.40
25046;DHT22;13044;49.304;12.840;2022-08-21T17:02:43;24.60;96.20
25046;DHT22;13044;49.304;12.840;2022-08-21T17:05:12;24.40;96.20
25046;DHT22;13044;49.304;12.840;2022-08-21T17:07:40;24.30;97.50
25046;DHT22;13044;49.304;12.840;2022-08-21T17:10:10;24.20;97.20
25046;DHT22;13044;49.304;12.840;2022-08-21T17:12:40;24.00;99.00
25046;DHT22;13044;49.304;12.840;2022-08-21T17:15:16;23.90;99.00
25046;DHT22;13044;49.304;12.840;2022-08-21T17:17:47;23.70;98.00
25046;DHT22;13044;49.304;12.840;2022-08-21T17:20:14;23.70;99.10
25046;DHT22;13044;49.304;12.840;2022-08-21T17:22:42;23.70;98.10
25046;DHT22;13044;49.304;12.840;2022-08-21T17:25:09;23.70;98.80